Time;durP1;ratioP1;P1;durP2;ratioP2;P2;SDS_P1;SDS_P2;PMS_P1;PMS_P2;Temp;Humidity;BMP_temperature;BMP_pressure;BME280_temperature;BME280_humidity;BME280_pressure;Samples;Min_cycle;Max_cycle;Signal;HPM_P1;HPM_P2
2022/04/29 00:00:12;;;;;;;5.07;2.47;;;4.00;99.90;;;;;;4962973;28;20146;-82
2022/04/29 00:02:41;;;;;;;8.02;2.42;;;4.00;99.90;;;;;;4968539;28;20065;-83
2022/04/29 00:05:09;;;;;;;5.10;1.83;;;3.90;99.90;;;;;;4973007;28;20051;-81
2022/04/29 00:07:37;;;;;;;11.60;1.67;;;3.90;99.90;;;;;;4974892;28;20138;-81
2022/04/29 00:10:05;;;;;;;5.40;2.35;;;3.90;99.90;;;;;;4956216;28;20050;-81
2022/04/29 00:12:33;;;;;;;4.47;1.98;;;3.90;99.90;;;;;;4955263;28;20051;-81
2022/04/29 00:15:01;;;;;;;5.25;2.58;;;3.90;99.90;;;;;;4980260;28;20066;-80
2022/04/29 00:17:29;;;;;;;4.07;2.22;;;3.90;99.90;;;;;;4969756;28;20138;-81
2022/04/29 00:19:57;;;;;;;3.60;3.13;;;4.00;99.90;;;;;;4970955;28;20051;-79
2022/04/29 00:22:25;;;;;;;2.20;1.52;;;4.00;99.90;;;;;;4959176;28;20059;-80
2022/04/29 00:24:52;;;;;;;7.13;1.98;;;4.00;99.90;;;;;;4989268;28;20047;-80
2022/04/29 00:27:20;;;;;;;1.70;1.60;;;4.00;99.90;;;;;;4955369;28;20051;-79
2022/04/29 00:29:47;;;;;;;2.55;1.80;;;4.00;99.90;;;;;;4955680;28;20047;-80
2022/04/29 00:32:15;;;;;;;3.60;1.55;;;3.90;99.90;;;;;;4961857;28;20420;-79
2022/04/29 00:34:42;;;;;;;5.72;2.30;;;3.90;99.90;;;;;;4972671;28;20055;-79
2022/04/29 00:37:11;;;;;;;5.05;1.85;;;3.90;99.90;;;;;;4978918;28;20578;-79
2022/04/29 00:39:39;;;;;;;1.70;1.60;;;3.80;99.90;;;;;;4980040;28;20058;-79
2022/04/29 00:42:13;;;;;;;6.07;3.25;;;3.80;99.90;;;;;;4961480;28;20051;-79
2022/04/29 00:44:41;;;;;;;4.63;2.10;;;3.70;99.90;;;;;;4958538;28;20102;-79
2022/04/29 00:47:12;;;;;;;5.57;2.33;;;3.70;99.90;;;;;;4955688;28;20054;-79
2022/04/29 00:49:39;;;;;;;2.20;1.92;;;3.60;99.90;;;;;;4953325;28;20405;-78
2022/04/29 00:52:11;;;;;;;5.72;1.75;;;3.60;99.90;;;;;;4937084;28;20160;-79
2022/04/29 00:54:42;;;;;;;4.05;2.00;;;3.70;99.90;;;;;;4958208;28;20062;-80
2022/04/29 00:57:16;;;;;;;2.95;1.95;;;3.70;99.90;;;;;;4986879;28;20054;-80
2022/04/29 00:59:49;;;;;;;7.20;1.85;;;3.70;99.90;;;;;;4967148;28;20436;-80
2022/04/29 01:02:18;;;;;;;1.50;1.40;;;3.80;99.90;;;;;;4965226;28;20051;-80
2022/04/29 01:04:55;;;;;;;2.38;1.75;;;3.80;99.90;;;;;;4969346;28;20047;-79
2022/04/29 01:07:23;;;;;;;3.45;1.67;;;3.80;99.90;;;;;;4953628;28;20062;-82
2022/04/29 01:09:51;;;;;;;2.22;1.60;;;3.80;99.90;;;;;;4953490;28;20411;-78
2022/04/29 01:12:18;;;;;;;5.35;1.58;;;3.80;99.90;;;;;;4969426;28;20043;-78
2022/04/29 01:14:46;;;;;;;5.50;1.90;;;3.80;99.90;;;;;;4968462;28;20142;-78
2022/04/29 01:17:14;;;;;;;3.88;1.92;;;3.80;99.90;;;;;;4957741;28;20047;-78
2022/04/29 01:19:41;;;;;;;5.63;2.25;;;3.80;99.90;;;;;;4970843;28;20142;-78
2022/04/29 01:22:10;;;;;;;3.58;1.75;;;3.80;99.90;;;;;;4970302;28;20047;-78
2022/04/29 01:24:39;;;;;;;2.83;1.65;;;3.70;99.90;;;;;;4954544;28;20146;-78
2022/04/29 01:27:11;;;;;;;3.42;1.88;;;3.70;99.90;;;;;;4951041;28;20085;-79
2022/04/29 01:29:43;;;;;;;3.55;1.83;;;3.70;99.90;;;;;;4966576;28;20051;-79
2022/04/29 01:32:11;;;;;;;2.22;2.00;;;3.70;99.90;;;;;;4958508;28;20051;-78
2022/04/29 01:34:42;;;;;;;4.45;2.58;;;3.70;99.90;;;;;;4976163;28;20051;-79
2022/04/29 01:37:12;;;;;;;3.28;1.75;;;3.70;99.90;;;;;;4967375;28;20432;-79
2022/04/29 01:39:40;;;;;;;2.85;1.95;;;3.70;99.90;;;;;;4957809;28;20053;-79
2022/04/29 01:42:08;;;;;;;2.22;1.90;;;3.70;99.90;;;;;;4952018;28;20138;-79
2022/04/29 01:49:04;;;;;;;5.28;2.03;;;3.70;99.90;;;;;;5005239;23;20070;-72
2022/04/29 01:51:34;;;;;;;2.35;1.90;;;3.70;99.90;;;;;;4955975;28;20051;-75
2022/04/29 01:54:09;;;;;;;3.40;2.30;;;3.70;99.90;;;;;;4968023;28;20047;-72
2022/04/29 01:56:37;;;;;;;1.92;1.73;;;3.80;99.90;;;;;;4953066;28;20051;-73
2022/04/29 01:59:06;;;;;;;2.45;2.25;;;3.70;99.90;;;;;;4951853;29;20074;-73
2022/04/29 02:01:39;;;;;;;1.50;1.40;;;3.70;99.90;;;;;;4950732;28;20055;-73
2022/04/29 02:04:06;;;;;;;2.08;1.90;;;3.80;99.90;;;;;;4953389;29;20138;-74
2022/04/29 02:06:34;;;;;;;1.65;1.55;;;3.80;99.90;;;;;;4947307;28;20055;-73
2022/04/29 02:09:03;;;;;;;2.20;1.88;;;3.80;99.90;;;;;;4966965;28;20055;-73
2022/04/29 02:11:30;;;;;;;1.88;1.77;;;3.80;99.90;;;;;;4967910;28;20121;-76
2022/04/29 02:14:17;;;;;;;3.92;1.83;;;3.90;99.90;;;;;;4952147;28;20055;-73
2022/04/29 02:16:59;;;;;;;1.80;1.70;;;3.80;99.90;;;;;;4945693;28;20472;-73
2022/04/29 02:19:28;;;;;;;3.03;1.85;;;3.90;99.90;;;;;;4967833;28;20059;-73
2022/04/29 02:21:58;;;;;;;1.95;1.85;;;3.90;99.90;;;;;;4952525;28;20050;-73
2022/04/29 02:24:30;;;;;;;1.70;1.60;;;3.90;99.90;;;;;;4968774;28;20106;-73
2022/04/29 02:27:00;;;;;;;2.55;1.75;;;3.90;99.90;;;;;;4947897;28;20110;-73
2022/04/29 02:29:28;;;;;;;1.50;1.40;;;4.00;99.90;;;;;;4934359;29;20304;-73
2022/04/29 02:31:56;;;;;;;1.75;1.65;;;4.00;99.90;;;;;;4951306;28;20074;-74
2022/04/29 02:34:24;;;;;;;2.75;1.98;;;4.00;99.90;;;;;;4951592;29;20063;-74
2022/04/29 02:36:53;;;;;;;1.92;1.80;;;4.00;99.90;;;;;;4965746;28;20098;-73
2022/04/29 02:39:22;;;;;;;1.50;1.40;;;4.00;99.90;;;;;;4935639;29;20075;-74
2022/04/29 02:41:51;;;;;;;6.07;2.10;;;4.00;99.90;;;;;;4967622;28;20391;-73
2022/04/29 02:44:18;;;;;;;2.08;1.63;;;4.10;99.90;;;;;;4967252;28;20047;-72
2022/04/29 02:49:31;;;;;;;2.00;1.88;;;4.10;99.90;;;;;;4967414;28;20062;-73
2022/04/29 02:51:59;;;;;;;2.05;1.85;;;4.10;99.90;;;;;;4952720;28;20074;-73
2022/04/29 02:54:26;;;;;;;2.90;1.90;;;4.10;99.90;;;;;;4966468;28;20191;-73
2022/04/29 02:56:55;;;;;;;1.90;1.80;;;4.20;99.90;;;;;;4950495;28;20062;-72
2022/04/29 02:59:33;;;;;;;4.75;2.40;;;4.20;99.90;;;;;;4967403;28;20047;-73
2022/04/29 03:02:01;;;;;;;2.08;1.65;;;4.20;99.90;;;;;;4965335;28;20473;-72
2022/04/29 03:04:28;;;;;;;3.53;1.98;;;4.30;99.90;;;;;;4960965;28;20503;-73
2022/04/29 03:06:56;;;;;;;2.05;1.80;;;4.30;99.90;;;;;;4952823;28;20534;-73
2022/04/29 03:09:24;;;;;;;3.47;2.13;;;4.30;99.90;;;;;;4962624;28;20113;-74
2022/04/29 03:11:53;;;;;;;1.48;1.35;;;4.30;99.90;;;;;;4970266;28;20058;-74
2022/04/29 03:14:22;;;;;;;2.60;1.50;;;4.40;99.90;;;;;;4969768;28;20055;-74
2022/04/29 03:16:49;;;;;;;1.63;1.50;;;4.50;99.90;;;;;;4951226;28;20055;-74
2022/04/29 03:19:17;;;;;;;1.60;1.50;;;4.50;99.90;;;;;;4952902;28;20086;-74
2022/04/29 03:21:44;;;;;;;2.22;1.05;;;4.60;99.90;;;;;;4960504;28;20590;-74
2022/04/29 03:24:12;;;;;;;2.13;1.40;;;4.60;99.90;;;;;;4957111;28;20050;-74
2022/04/29 03:26:40;;;;;;;1.75;1.20;;;4.60;99.90;;;;;;4973157;28;20047;-73
2022/04/29 03:29:08;;;;;;;2.35;1.40;;;4.60;99.90;;;;;;4971970;28;20078;-74
2022/04/29 03:31:37;;;;;;;1.98;1.60;;;4.60;99.90;;;;;;4969652;28;20044;-74
2022/04/29 03:34:28;;;;;;;1.95;1.38;;;4.60;99.90;;;;;;4951954;28;20450;-73
2022/04/29 03:36:55;;;;;;;5.25;1.58;;;4.70;99.90;;;;;;4972152;28;20051;-73
2022/04/29 03:39:23;;;;;;;4.38;1.77;;;4.70;99.90;;;;;;4973938;28;20506;-74
2022/04/29 03:41:51;;;;;;;1.85;1.50;;;4.70;99.90;;;;;;4953767;28;20134;-74
2022/04/29 03:44:19;;;;;;;5.28;1.67;;;4.70;99.90;;;;;;4947122;28;20046;-73
2022/04/29 03:46:49;;;;;;;3.35;1.80;;;4.80;99.90;;;;;;4970364;28;20040;-74
2022/04/29 03:49:37;;;;;;;2.78;2.08;;;4.70;99.90;;;;;;4969339;28;20583;-74
2022/04/29 03:52:18;;;;;;;;;;;4.70;99.90;;;;;;4967229;28;20550;-74
2022/04/29 03:54:45;;;;;;;1.63;1.52;;;4.70;99.90;;;;;;4940607;29;19926;-73
2022/04/29 03:57:14;;;;;;;2.70;1.55;;;4.90;99.90;;;;;;4970025;28;20122;-74
2022/04/29 03:59:41;;;;;;;1.88;1.52;;;4.90;99.90;;;;;;4954163;28;20683;-74
2022/04/29 04:02:11;;;;;;;1.55;1.45;;;4.90;99.90;;;;;;4941275;28;20066;-74
2022/04/29 04:04:38;;;;;;;2.60;1.45;;;4.90;99.90;;;;;;4952143;28;20059;-73
2022/04/29 04:07:09;;;;;;;2.88;1.52;;;4.80;99.90;;;;;;4945020;28;20499;-74
2022/04/29 04:10:11;;;;;;;3.22;2.05;;;4.80;99.90;;;;;;4971463;28;20190;-76
2022/04/29 04:12:41;;;;;;;3.58;2.20;;;4.80;99.90;;;;;;4970118;28;20102;-77
2022/04/29 04:15:27;;;;;;;2.38;2.10;;;4.90;99.90;;;;;;4969848;28;20059;-74
2022/04/29 04:17:55;;;;;;;4.68;1.77;;;4.90;99.90;;;;;;4953058;28;20071;-77
2022/04/29 04:20:23;;;;;;;1.48;1.38;;;5.00;99.90;;;;;;4964627;28;20051;-74
2022/04/29 04:23:04;;;;;;;3.38;2.05;;;5.00;99.90;;;;;;4949522;28;20043;-73
2022/04/29 04:25:32;;;;;;;1.52;1.40;;;4.90;99.90;;;;;;4968752;28;20565;-73
2022/04/29 04:28:01;;;;;;;2.20;1.80;;;4.80;99.90;;;;;;4969773;28;20047;-72
2022/04/29 04:30:54;;;;;;;3.10;1.63;;;4.70;99.90;;;;;;4971191;28;20396;-72
2022/04/29 04:33:29;;;;;;;2.13;1.83;;;4.70;99.90;;;;;;4955144;28;20052;-76
2022/04/29 04:36:01;;;;;;;1.60;1.48;;;4.80;99.90;;;;;;4942052;29;20066;-77
2022/04/29 04:38:32;;;;;;;1.48;1.38;;;5.00;99.90;;;;;;4954423;29;20133;-73
2022/04/29 04:41:07;;;;;;;0.95;0.93;;;5.20;99.90;;;;;;4953227;28;20146;-77
2022/04/29 04:43:35;;;;;;;2.67;0.90;;;5.40;99.90;;;;;;4968927;28;20051;-77
2022/04/29 04:46:06;;;;;;;1.63;0.68;;;5.50;99.90;;;;;;4954956;28;20050;-77
2022/04/29 04:48:45;;;;;;;1.67;0.63;;;5.50;99.90;;;;;;4969783;28;20054;-77
2022/04/29 04:51:42;;;;;;;0.40;0.40;;;5.60;99.90;;;;;;4955183;28;20074;-78
2022/04/29 04:54:14;;;;;;;1.52;1.42;;;5.50;99.90;;;;;;4936957;29;20047;-79
2022/04/29 04:56:45;;;;;;;1.00;0.60;;;5.60;99.90;;;;;;4954336;28;20215;-78
2022/04/29 04:59:13;;;;;;;0.70;0.70;;;5.70;99.90;;;;;;4971840;28;20051;-78
2022/04/29 05:01:41;;;;;;;0.30;0.30;;;5.70;99.90;;;;;;4938105;28;20051;-79
2022/04/29 05:04:29;;;;;;;0.30;0.30;;;5.80;99.90;;;;;;4969775;28;20058;-73
2022/04/29 05:07:20;;;;;;;;;;;5.90;99.90;;;;;;4965852;28;20055;-72
2022/04/29 05:09:49;;;;;;;0.82;0.28;;;5.90;99.90;;;;;;4952322;28;20103;-72
2022/04/29 05:12:17;;;;;;;1.02;0.30;;;6.00;99.90;;;;;;4937347;29;20043;-73
2022/04/29 05:15:04;;;;;;;1.02;0.95;;;6.10;99.90;;;;;;4969127;28;20055;-73
2022/04/29 05:17:33;;;;;;;3.05;0.28;;;6.40;99.90;;;;;;4953578;28;20637;-73
2022/04/29 05:20:23;;;;;;;1.30;0.50;;;6.40;99.90;;;;;;4967801;28;20051;-74
2022/04/29 05:22:51;;;;;;;1.80;1.60;;;6.20;99.90;;;;;;4966839;28;20083;-74
2022/04/29 05:25:19;;;;;;;4.45;3.80;;;6.10;99.90;;;;;;4952361;29;20456;-74
2022/04/29 05:27:59;;;;;;;5.15;4.65;;;6.00;99.90;;;;;;4953902;28;20066;-74
2022/04/29 05:31:01;;;;;;;3.47;2.85;;;6.10;99.90;;;;;;4948525;29;20490;-73
2022/04/29 05:33:49;;;;;;;1.50;1.33;;;6.20;99.90;;;;;;4951724;28;20055;-75
2022/04/29 05:36:38;;;;;;;3.08;0.90;;;6.20;99.90;;;;;;4966104;28;20047;-74
2022/04/29 05:42:18;;;;;;;2.83;0.80;;;6.10;99.90;;;;;;4949648;28;20055;-73
2022/04/29 05:44:47;;;;;;;0.75;0.75;;;6.10;99.90;;;;;;4949862;29;20051;-73
2022/04/29 05:47:17;;;;;;;0.70;0.70;;;5.90;99.90;;;;;;4964953;28;20053;-73
2022/04/29 05:49:47;;;;;;;1.45;1.13;;;5.90;99.90;;;;;;4968509;28;20409;-73
2022/04/29 05:52:16;;;;;;;2.83;1.38;;;6.00;99.90;;;;;;4951987;29;20062;-73
2022/04/29 05:54:49;;;;;;;1.10;1.00;;;6.20;99.90;;;;;;4968376;28;20535;-73
2022/04/29 05:57:24;;;;;;;1.40;0.70;;;6.40;99.90;;;;;;4951311;28;20599;-73
2022/04/29 05:59:52;;;;;;;1.20;1.10;;;7.00;99.90;;;;;;4949267;29;20070;-74
2022/04/29 06:02:40;;;;;;;3.17;1.00;;;7.80;99.90;;;;;;4932777;29;20058;-73
2022/04/29 06:05:11;;;;;;;2.03;1.35;;;8.50;99.90;;;;;;4954543;28;20047;-75
2022/04/29 06:07:42;;;;;;;1.20;1.08;;;8.50;99.90;;;;;;4968222;28;20065;-74
2022/04/29 06:10:11;;;;;;;1.20;1.10;;;8.30;99.90;;;;;;4952160;29;20079;-74
2022/04/29 06:12:43;;;;;;;5.03;1.13;;;8.10;99.90;;;;;;4968002;28;20050;-77
2022/04/29 06:15:19;;;;;;;3.35;1.40;;;7.80;99.90;;;;;;4950552;29;20145;-79
2022/04/29 06:18:06;;;;;;;3.13;1.35;;;7.50;99.90;;;;;;4949932;28;20055;-78
2022/04/29 06:21:18;;;;;;;1.42;0.95;;;7.20;99.90;;;;;;4946221;28;20047;-79
2022/04/29 06:24:16;;;;;;;1.65;1.25;;;6.80;99.90;;;;;;4946780;29;20040;-78
2022/04/29 06:26:45;;;;;;;4.43;1.20;;;6.80;99.90;;;;;;4949451;29;20502;-79
2022/04/29 06:29:14;;;;;;;1.92;1.15;;;6.80;99.90;;;;;;4967784;28;20130;-77
2022/04/29 06:31:42;;;;;;;1.00;1.00;;;6.70;99.90;;;;;;4946805;29;20051;-77
2022/04/29 06:34:28;;;;;;;1.33;1.15;;;6.50;99.90;;;;;;4948042;29;20052;-77
2022/04/29 06:36:57;;;;;;;3.50;1.05;;;6.50;99.90;;;;;;4939333;29;20058;-76
2022/04/29 06:39:26;;;;;;;1.70;1.33;;;6.30;99.90;;;;;;4940988;29;20111;-72
2022/04/29 06:42:03;;;;;;;4.97;0.95;;;6.30;99.90;;;;;;4945308;28;20039;-73
2022/04/29 06:44:59;;;;;;;14.43;1.58;;;6.20;99.90;;;;;;4943989;29;20079;-73
2022/04/29 06:47:59;;;;;;;1.90;0.82;;;6.20;99.90;;;;;;4941348;29;20064;-73
2022/04/29 06:50:45;;;;;;;3.72;0.93;;;6.00;99.90;;;;;;4944343;29;20043;-72
2022/04/29 06:53:31;;;;;;;1.23;1.13;;;6.00;99.90;;;;;;4958585;28;20047;-73
2022/04/29 06:56:05;;;;;;;3.25;1.30;;;6.00;99.90;;;;;;4951672;28;20169;-72
2022/04/29 06:58:33;;;;;;;1.00;0.90;;;6.00;99.90;;;;;;4951085;29;20051;-78
2022/04/29 07:01:07;;;;;;;2.20;1.17;;;6.00;99.90;;;;;;4953833;28;20110;-79
2022/04/29 07:03:35;;;;;;;3.58;1.13;;;6.00;99.90;;;;;;4944964;29;20423;-78
2022/04/29 07:06:06;;;;;;;0.98;0.70;;;6.00;99.90;;;;;;4950723;28;20540;-79
2022/04/29 07:08:34;;;;;;;3.05;1.30;;;6.20;99.90;;;;;;4963548;28;20076;-81
2022/04/29 07:11:25;;;;;;;2.33;1.00;;;6.40;99.90;;;;;;4918679;29;20052;-79
2022/04/29 07:14:07;;;;;;;0.68;0.68;;;6.50;99.90;;;;;;4984384;28;20547;-80
2022/04/29 07:16:55;;;;;;;22.10;1.48;;;6.40;99.90;;;;;;4962860;28;20051;-79
2022/04/29 07:20:01;;;;;;;2.05;0.70;;;6.40;99.90;;;;;;4958377;28;20059;-80
2022/04/29 07:22:30;;;;;;;2.58;1.13;;;6.40;99.90;;;;;;4959506;28;20047;-80
2022/04/29 07:24:59;;;;;;;2.88;1.83;;;6.40;99.90;;;;;;4961117;28;20083;-81
2022/04/29 07:27:29;;;;;;;4.03;2.00;;;6.30;99.90;;;;;;4947368;29;20079;-80
2022/04/29 07:29:56;;;;;;;1.60;1.40;;;6.20;99.90;;;;;;4953871;29;20039;-79
2022/04/29 07:32:31;;;;;;;2.33;1.10;;;6.00;99.90;;;;;;4937299;29;20054;-80
2022/04/29 07:44:01;;;;;;;1.00;1.00;;;6.10;99.90;;;;;;4960481;28;20114;-73
2022/04/29 07:46:31;;;;;;;2.15;1.00;;;7.20;99.90;;;;;;4944746;29;20053;-72
2022/04/29 07:49:17;;;;;;;0.88;0.88;;;7.90;99.90;;;;;;4946414;29;20415;-73
2022/04/29 07:51:45;;;;;;;2.40;0.90;;;8.70;99.90;;;;;;4943855;29;20044;-73
2022/04/29 07:54:13;;;;;;;1.35;1.10;;;9.00;99.90;;;;;;4973767;28;20071;-75
2022/04/29 07:56:43;;;;;;;2.08;0.90;;;9.00;99.90;;;;;;4943756;29;20444;-72
2022/04/29 07:59:15;;;;;;;0.85;0.85;;;8.90;99.90;;;;;;4953038;29;20057;-72
2022/04/29 08:01:43;;;;;;;2.95;0.80;;;8.80;99.90;;;;;;4936798;29;20051;-72
2022/04/29 08:04:13;;;;;;;1.02;1.02;;;8.60;99.90;;;;;;4972656;28;20043;-72
2022/04/29 08:06:41;;;;;;;1.27;1.00;;;8.50;99.90;;;;;;4948475;29;20051;-74
2022/04/29 08:09:09;;;;;;;1.10;1.00;;;8.50;99.90;;;;;;4935505;29;20094;-75
2022/04/29 08:11:39;;;;;;;2.30;1.17;;;8.70;99.90;;;;;;4937740;29;20043;-73
2022/04/29 08:14:44;;;;;;;5.85;0.82;;;8.50;99.90;;;;;;4954156;29;20129;-74
2022/04/29 08:17:21;;;;;;;1.17;0.98;;;8.20;99.90;;;;;;4953787;28;20058;-73
2022/04/29 08:19:51;;;;;;;2.95;0.80;;;8.00;99.90;;;;;;4969038;28;20151;-73
2022/04/29 08:22:36;;;;;;;1.00;0.90;;;8.20;99.90;;;;;;4968370;28;20079;-73
2022/04/29 08:28:18;;;;;;;1.00;0.95;;;8.70;99.90;;;;;;4952766;29;20602;-74
2022/04/29 08:30:51;;;;;;;3.67;0.90;;;8.70;99.90;;;;;;4941525;29;20071;-74
2022/04/29 08:33:21;;;;;;;3.42;0.90;;;8.70;99.90;;;;;;4949585;29;20071;-73
2022/04/29 08:35:51;;;;;;;0.98;0.82;;;9.60;99.90;;;;;;4961114;28;20047;-72
2022/04/29 08:38:19;;;;;;;1.77;0.90;;;10.70;99.90;;;;;;4968424;28;20067;-72
2022/04/29 08:40:51;;;;;;;0.50;0.50;;;11.30;99.90;;;;;;4968241;28;20043;-72
2022/04/29 08:43:25;;;;;;;7.13;0.98;;;11.80;96.80;;;;;;4968271;28;20051;-74
2022/04/29 08:45:58;;;;;;;4.68;1.15;;;11.90;93.70;;;;;;4936190;28;20047;-72
2022/04/29 08:48:32;;;;;;;2.75;0.77;;;11.90;93.50;;;;;;4953320;29;20147;-72
2022/04/29 08:51:00;;;;;;;4.22;1.30;;;11.60;91.60;;;;;;4964981;28;20476;-74
2022/04/29 08:53:27;;;;;;;7.68;0.90;;;10.90;92.90;;;;;;4934664;29;20048;-71
2022/04/29 08:58:40;;;;;;;0.52;0.45;;;8.90;99.90;;;;;;4951864;28;20157;-73
2022/04/29 09:01:13;;;;;;;1.48;0.40;;;7.90;99.90;;;;;;4954212;28;20094;-73
2022/04/29 09:03:43;;;;;;;0.47;0.40;;;7.30;99.90;;;;;;4947750;28;20209;-80
2022/04/29 09:06:12;;;;;;;3.88;1.48;;;6.80;99.90;;;;;;4943553;29;20048;-78
2022/04/29 09:08:41;;;;;;;1.40;0.65;;;6.70;99.90;;;;;;4947881;28;20043;-78
2022/04/29 09:11:09;;;;;;;1.77;0.80;;;6.60;99.90;;;;;;4943015;28;20134;-74
2022/04/29 09:13:39;;;;;;;1.02;0.80;;;6.80;99.90;;;;;;4942464;29;20044;-78
2022/04/29 09:16:12;;;;;;;2.45;0.60;;;7.90;99.90;;;;;;4945494;28;20051;-73
2022/04/29 09:18:44;;;;;;;0.73;0.52;;;10.10;99.90;;;;;;4958008;28;20049;-73
2022/04/29 09:21:13;;;;;;;1.60;0.93;;;12.10;99.90;;;;;;4956824;28;20106;-74
2022/04/29 09:23:44;;;;;;;1.33;0.95;;;12.90;94.30;;;;;;4940755;29;20492;-72
2022/04/29 09:26:35;;;;;;;0.85;0.80;;;12.90;90.30;;;;;;4946906;29;20052;-74
2022/04/29 09:29:21;;;;;;;2.28;1.08;;;12.40;91.10;;;;;;4950860;28;20051;-74
2022/04/29 09:31:59;;;;;;;4.28;1.25;;;12.00;91.40;;;;;;4934889;29;20593;-73
2022/04/29 09:34:47;;;;;;;0.88;0.70;;;11.50;91.40;;;;;;4952526;29;20058;-73
2022/04/29 09:37:16;;;;;;;4.55;0.77;;;10.90;94.20;;;;;;4951012;28;20051;-73
2022/04/29 09:39:52;;;;;;;1.08;0.70;;;10.20;97.10;;;;;;4951176;28;20110;-74
2022/04/29 09:42:20;;;;;;;1.15;0.75;;;9.30;99.90;;;;;;4949950;29;20082;-73
2022/04/29 09:44:48;;;;;;;1.55;0.70;;;8.50;99.90;;;;;;4943497;29;20047;-72
2022/04/29 09:47:20;;;;;;;0.95;0.60;;;8.00;99.90;;;;;;4964518;28;20531;-72
2022/04/29 09:49:55;;;;;;;0.93;0.63;;;8.00;99.90;;;;;;4966890;28;20090;-72
2022/04/29 09:52:24;;;;;;;1.00;0.70;;;8.50;99.90;;;;;;4950472;28;20326;-73
2022/04/29 09:54:53;;;;;;;1.08;0.80;;;9.10;99.90;;;;;;4966948;28;20065;-73
2022/04/29 09:57:23;;;;;;;2.55;1.08;;;9.30;99.90;;;;;;4951959;28;20055;-72
2022/04/29 09:59:53;;;;;;;4.10;3.67;;;9.10;99.90;;;;;;4945185;29;20172;-73
2022/04/29 10:02:24;;;;;;;6.72;4.63;;;8.70;99.90;;;;;;4949553;28;20047;-73
2022/04/29 10:04:56;;;;;;;4.00;2.15;;;8.20;99.90;;;;;;4969950;28;20046;-72
2022/04/29 10:07:26;;;;;;;3.25;2.05;;;7.60;99.90;;;;;;4954812;28;20051;-73
2022/04/29 10:10:00;;;;;;;1.27;0.85;;;7.20;99.90;;;;;;4950438;29;20148;-72
2022/04/29 10:12:29;;;;;;;2.00;1.02;;;7.10;99.90;;;;;;4951607;29;20043;-73
2022/04/29 10:15:17;;;;;;;1.67;1.00;;;7.20;99.90;;;;;;4941520;29;20058;-72
2022/04/29 10:23:39;;;;;;;3.40;1.35;;;7.60;99.90;;;;;;4950029;29;20051;-79
2022/04/29 10:26:07;;;;;;;3.15;0.82;;;7.70;99.90;;;;;;4950625;28;20063;-79
2022/04/29 10:28:35;;;;;;;5.40;1.42;;;7.90;99.90;;;;;;4949771;28;20051;-79
2022/04/29 10:31:05;;;;;;;2.17;1.10;;;8.10;99.90;;;;;;4951876;28;20565;-79
2022/04/29 10:33:36;;;;;;;0.80;0.80;;;8.40;99.90;;;;;;4950349;29;20059;-78
2022/04/29 10:36:08;;;;;;;1.10;1.00;;;10.10;99.90;;;;;;4950698;28;20149;-80
2022/04/29 10:38:37;;;;;;;4.45;1.58;;;12.40;99.90;;;;;;4945597;29;20055;-79
2022/04/29 10:41:17;;;;;;;1.90;1.00;;;14.40;89.50;;;;;;4950965;28;20055;-78
2022/04/29 10:44:04;;;;;;;0.85;0.85;;;16.10;69.00;;;;;;4951505;28;20487;-78
2022/04/29 10:46:35;;;;;;;4.47;1.25;;;17.50;59.80;;;;;;4951992;28;20055;-78
2022/04/29 10:49:39;;;;;;;2.53;0.98;;;17.50;58.20;;;;;;4950131;29;20051;-80
2022/04/29 10:52:25;;;;;;;0.55;0.40;;;15.30;57.70;;;;;;4968543;28;20061;-79
2022/04/29 10:55:07;;;;;;;1.85;1.05;;;13.20;57.00;;;;;;4952258;29;20053;-78
2022/04/29 10:57:53;;;;;;;0.98;0.57;;;11.90;63.00;;;;;;4952573;28;20051;-79
2022/04/29 11:00:25;;;;;;;1.17;0.60;;;11.00;64.70;;;;;;4960104;28;20065;-80
2022/04/29 11:02:57;;;;;;;0.60;0.60;;;10.50;62.20;;;;;;4950772;28;20051;-80
2022/04/29 11:05:37;;;;;;;2.25;0.90;;;10.10;64.90;;;;;;4951124;28;20071;-72
2022/04/29 11:08:13;;;;;;;0.75;0.70;;;10.10;66.30;;;;;;4963276;28;20047;-73
2022/04/29 11:10:57;;;;;;;1.50;0.80;;;11.10;67.20;;;;;;4952171;28;20058;-73
2022/04/29 11:13:30;;;;;;;0.98;0.70;;;13.10;60.80;;;;;;4949470;28;20051;-72
2022/04/29 11:16:12;;;;;;;3.60;0.98;;;13.30;58.40;;;;;;4943541;29;20047;-74
2022/04/29 11:19:20;;;;;;;1.30;1.00;;;12.70;58.50;;;;;;4957849;28;20091;-73
2022/04/29 11:24:44;;;;;;;0.45;0.45;;;10.90;57.70;;;;;;4962458;28;20384;-73
2022/04/29 11:27:26;;;;;;;1.15;0.57;;;10.30;58.80;;;;;;4964685;28;20054;-75
2022/04/29 11:30:35;;;;;;;0.90;0.75;;;9.70;58.90;;;;;;4963658;28;20054;-74
2022/04/29 11:33:05;;;;;;;2.22;0.80;;;9.40;60.00;;;;;;4965698;28;20423;-73
2022/04/29 11:35:33;;;;;;;2.60;0.77;;;9.30;59.40;;;;;;4945310;29;20052;-76
2022/04/29 11:38:02;;;;;;;1.63;0.60;;;9.80;58.60;;;;;;4947186;28;20056;-76
2022/04/29 11:40:29;;;;;;;4.43;1.13;;;10.20;57.60;;;;;;4951881;28;20134;-75
2022/04/29 11:42:57;;;;;;;1.25;0.50;;;10.40;55.90;;;;;;4966633;28;20051;-77
2022/04/29 11:45:26;;;;;;;4.22;0.82;;;10.80;54.10;;;;;;4954571;29;20053;-78
2022/04/29 11:48:04;;;;;;;10.15;0.90;;;11.00;52.90;;;;;;4951648;29;20051;-77
2022/04/29 11:50:33;;;;;;;1.20;0.65;;;12.50;53.50;;;;;;4953440;28;20403;-77
2022/04/29 11:53:12;;;;;;;3.20;0.90;;;15.00;50.50;;;;;;4968363;28;20118;-77
2022/04/29 11:55:40;;;;;;;3.42;0.90;;;15.70;46.00;;;;;;4938125;29;20054;-73
2022/04/29 11:58:09;;;;;;;5.93;1.10;;;14.80;46.40;;;;;;4953555;28;20051;-74
2022/04/29 12:00:37;;;;;;;1.27;0.70;;;13.50;47.90;;;;;;4954255;29;20492;-73
2022/04/29 12:03:05;;;;;;;1.50;0.60;;;12.40;49.20;;;;;;4949934;29;20051;-73
2022/04/29 12:05:33;;;;;;;4.03;0.90;;;11.50;50.30;;;;;;4946852;29;20066;-78
2022/04/29 12:08:06;;;;;;;1.23;0.40;;;10.80;50.80;;;;;;4953997;28;20047;-76
2022/04/29 12:10:45;;;;;;;1.65;0.80;;;10.50;50.50;;;;;;4968696;28;20247;-73
2022/04/29 12:13:13;;;;;;;4.45;0.52;;;10.70;50.20;;;;;;4950730;29;20055;-79
2022/04/29 12:15:43;;;;;;;4.03;0.80;;;12.40;51.50;;;;;;4950308;29;20090;-79
2022/04/29 12:18:13;;;;;;;4.53;0.80;;;15.40;47.00;;;;;;4955578;28;20589;-73
2022/04/29 12:20:43;;;;;;;6.18;1.27;;;16.40;43.00;;;;;;4945670;29;20122;-74
2022/04/29 12:23:14;;;;;;;6.40;0.70;;;15.60;41.90;;;;;;4942880;29;20059;-73
2022/04/29 12:25:45;;;;;;;2.50;1.05;;;14.40;43.50;;;;;;4950536;29;20054;-74
2022/04/29 12:28:17;;;;;;;7.20;0.65;;;13.00;44.70;;;;;;4964290;28;20043;-74
2022/04/29 12:36:53;;;;;;;3.97;0.80;;;10.90;48.30;;;;;;4922573;28;20097;-74
2022/04/29 12:39:25;;;;;;;5.43;0.90;;;11.20;47.70;;;;;;4951086;29;20081;-74
2022/04/29 12:42:03;;;;;;;1.75;0.75;;;13.70;47.20;;;;;;4950845;29;20057;-74
2022/04/29 12:45:11;;;;;;;4.82;1.20;;;16.20;42.80;;;;;;4953552;29;20135;-73
2022/04/29 12:48:02;;;;;;;2.13;0.77;;;16.10;40.70;;;;;;4969255;28;20487;-73
2022/04/29 12:50:38;;;;;;;;;;;14.70;41.10;;;;;;4962090;28;20063;-73
2022/04/29 12:53:08;;;;;;;4.03;1.00;;;13.30;42.40;;;;;;4949398;28;20423;-73
2022/04/29 12:55:39;;;;;;;7.20;0.80;;;12.40;43.70;;;;;;4937344;29;20099;-79
2022/04/29 12:58:12;;;;;;;2.17;0.90;;;12.00;46.20;;;;;;4949444;29;20059;-72
2022/04/29 13:00:41;;;;;;;1.20;0.90;;;11.60;46.20;;;;;;4944227;29;21113;-74
2022/04/29 13:03:11;;;;;;;3.15;0.88;;;13.00;46.60;;;;;;4947741;29;20455;-72
2022/04/29 13:05:45;;;;;;;2.33;0.85;;;15.80;41.30;;;;;;4961237;28;20525;-71
2022/04/29 13:08:15;;;;;;;6.70;1.25;;;17.10;38.90;;;;;;4948426;28;20055;-74
2022/04/29 13:10:45;;;;;;;3.05;0.93;;;16.40;38.70;;;;;;4944191;29;20500;-74
2022/04/29 13:13:14;;;;;;;0.98;0.82;;;14.80;39.40;;;;;;4945300;29;20431;-74
2022/04/29 13:15:43;;;;;;;6.90;1.25;;;13.30;40.60;;;;;;4941526;29;20059;-80
2022/04/29 13:18:12;;;;;;;4.90;1.00;;;12.40;42.60;;;;;;4964014;28;20055;-79
2022/04/29 13:20:40;;;;;;;2.67;0.55;;;11.60;43.80;;;;;;4952289;28;20455;-80
2022/04/29 13:23:11;;;;;;;0.95;0.60;;;11.10;45.60;;;;;;4951075;28;20576;-80
2022/04/29 13:25:42;;;;;;;4.40;0.75;;;11.00;46.30;;;;;;4935078;29;20338;-78
2022/04/29 13:28:11;;;;;;;2.55;0.60;;;12.80;45.60;;;;;;4937758;28;20067;-80
2022/04/29 13:30:40;;;;;;;3.17;0.90;;;13.30;45.50;;;;;;4958456;28;20043;-77
2022/04/29 13:33:09;;;;;;;2.55;0.90;;;12.80;46.70;;;;;;4947088;29;20043;-81
2022/04/29 13:35:38;;;;;;;5.25;1.00;;;12.10;49.30;;;;;;4955252;28;20047;-72
2022/04/29 13:38:07;;;;;;;4.57;0.60;;;12.50;51.00;;;;;;4946570;29;20062;-82
2022/04/29 13:40:37;;;;;;;5.20;1.23;;;12.10;51.60;;;;;;4933929;29;20138;-80
2022/04/29 13:43:07;;;;;;;;;;;11.20;52.50;;;;;;4947345;29;20142;-80
2022/04/29 13:45:35;;;;;;;8.23;2.17;;;10.40;54.70;;;;;;4951123;29;19932;-80
2022/04/29 13:48:05;;;;;;;5.95;1.30;;;9.70;56.40;;;;;;4946658;28;20047;-79
2022/04/29 13:50:36;;;;;;;2.85;0.70;;;9.10;56.60;;;;;;4967434;28;20055;-79
2022/04/29 13:53:11;;;;;;;5.85;1.25;;;8.90;57.70;;;;;;4948861;29;20062;-79
2022/04/29 13:55:45;;;;;;;4.97;0.80;;;10.10;58.40;;;;;;4956533;28;20138;-77
2022/04/29 13:58:14;;;;;;;4.53;0.80;;;11.90;52.60;;;;;;4949735;28;20479;-78
2022/04/29 14:00:43;;;;;;;6.07;1.35;;;13.00;51.80;;;;;;4953414;29;20499;-78
2022/04/29 14:03:12;;;;;;;3.42;0.80;;;15.10;48.70;;;;;;4961120;28;20586;-79
2022/04/29 14:05:40;;;;;;;3.30;0.80;;;16.60;45.70;;;;;;4949087;29;20503;-78